sensor_id;sensor_type;location;lat;lon;timestamp;temperature;humidity
429;DHT22;201;48.758;9.290;2023-02-02T00:00:56;4.80;2.20
429;DHT22;201;48.758;9.290;2023-02-02T00:03:22;4.90;2.40
429;DHT22;201;48.758;9.290;2023-02-02T00:05:51;4.90;2.50
429;DHT22;201;48.758;9.290;2023-02-02T00:08:17;4.90;2.50
429;DHT22;201;48.758;9.290;2023-02-02T00:10:43;4.90;2.60
429;DHT22;201;48.758;9.290;2023-02-02T00:13:10;4.90;2.60
429;DHT22;201;48.758;9.290;2023-02-02T00:15:36;4.90;3.00
429;DHT22;201;48.758;9.290;2023-02-02T00:18:02;4.90;2.90
429;DHT22;201;48.758;9.290;2023-02-02T00:20:28;4.90;3.20
429;DHT22;201;48.758;9.290;2023-02-02T00:22:54;4.90;3.00
429;DHT22;201;48.758;9.290;2023-02-02T00:25:20;4.90;2.90
429;DHT22;201;48.758;9.290;2023-02-02T00:27:45;4.90;3.10
429;DHT22;201;48.758;9.290;2023-02-02T00:30:11;4.90;3.40
429;DHT22;201;48.758;9.290;2023-02-02T00:32:37;4.80;3.10
429;DHT22;201;48.758;9.290;2023-02-02T00:35:02;4.80;3.40
429;DHT22;201;48.758;9.290;2023-02-02T00:37:28;4.90;3.60
429;DHT22;201;48.758;9.290;2023-02-02T00:39:53;4.80;3.60
429;DHT22;201;48.758;9.290;2023-02-02T00:42:19;4.80;3.50
429;DHT22;201;48.758;9.290;2023-02-02T00:44:44;4.80;3.90
429;DHT22;201;48.758;9.290;2023-02-02T00:47:28;4.80;3.90
429;DHT22;201;48.758;9.290;2023-02-02T00:49:54;4.90;4.10
429;DHT22;201;48.758;9.290;2023-02-02T00:52:19;4.80;3.70
429;DHT22;201;48.758;9.290;2023-02-02T00:54:45;4.80;3.80
429;DHT22;201;48.758;9.290;2023-02-02T00:57:14;4.80;4.00
429;DHT22;201;48.758;9.290;2023-02-02T00:59:40;4.90;3.80
429;DHT22;201;48.758;9.290;2023-02-02T01:02:06;4.90;3.90
429;DHT22;201;48.758;9.290;2023-02-02T01:04:31;4.80;3.70
429;DHT22;201;48.758;9.290;2023-02-02T01:06:57;4.90;3.70
429;DHT22;201;48.758;9.290;2023-02-02T01:09:22;4.90;3.50
429;DHT22;201;48.758;9.290;2023-02-02T01:11:48;4.90;3.50
429;DHT22;201;48.758;9.290;2023-02-02T01:14:13;5.00;3.40
429;DHT22;201;48.758;9.290;2023-02-02T01:16:39;5.00;3.30
429;DHT22;201;48.758;9.290;2023-02-02T01:19:04;5.00;3.30
429;DHT22;201;48.758;9.290;2023-02-02T01:21:30;5.00;3.10
429;DHT22;201;48.758;9.290;2023-02-02T01:23:55;5.10;3.20
429;DHT22;201;48.758;9.290;2023-02-02T01:26:21;5.00;3.00
429;DHT22;201;48.758;9.290;2023-02-02T01:28:46;5.00;2.90
429;DHT22;201;48.758;9.290;2023-02-02T01:31:15;5.00;2.90
429;DHT22;201;48.758;9.290;2023-02-02T01:33:42;5.00;3.00
429;DHT22;201;48.758;9.290;2023-02-02T01:36:11;5.00;3.50
429;DHT22;201;48.758;9.290;2023-02-02T01:38:37;5.00;3.90
429;DHT22;201;48.758;9.290;2023-02-02T01:41:03;4.90;3.60
429;DHT22;201;48.758;9.290;2023-02-02T01:46:18;4.90;4.10
429;DHT22;201;48.758;9.290;2023-02-02T01:49:05;4.90;4.30
429;DHT22;201;48.758;9.290;2023-02-02T01:51:56;4.90;4.70
429;DHT22;201;48.758;9.290;2023-02-02T01:54:26;4.90;4.80
429;DHT22;201;48.758;9.290;2023-02-02T01:57:14;4.90;4.70
429;DHT22;201;48.758;9.290;2023-02-02T01:59:41;5.00;4.80
429;DHT22;201;48.758;9.290;2023-02-02T02:02:09;5.00;4.70
429;DHT22;201;48.758;9.290;2023-02-02T02:04:35;5.00;4.60
429;DHT22;201;48.758;9.290;2023-02-02T02:07:02;5.00;4.80
429;DHT22;201;48.758;9.290;2023-02-02T02:09:28;5.00;4.70
429;DHT22;201;48.758;9.290;2023-02-02T02:11:54;5.00;4.70
429;DHT22;201;48.758;9.290;2023-02-02T02:14:20;5.00;5.10
429;DHT22;201;48.758;9.290;2023-02-02T02:23:32;5.00;5.10
429;DHT22;201;48.758;9.290;2023-02-02T02:26:33;5.00;4.90
429;DHT22;201;48.758;9.290;2023-02-02T02:34:56;5.10;5.00
429;DHT22;201;48.758;9.290;2023-02-02T02:37:54;5.20;4.40
429;DHT22;201;48.758;9.290;2023-02-02T02:40:29;5.20;4.60
429;DHT22;201;48.758;9.290;2023-02-02T02:43:11;5.30;4.30
429;DHT22;201;48.758;9.290;2023-02-02T02:45:38;5.30;4.10
429;DHT22;201;48.758;9.290;2023-02-02T02:48:04;5.30;4.20
429;DHT22;201;48.758;9.290;2023-02-02T02:50:29;5.40;4.20
429;DHT22;201;48.758;9.290;2023-02-02T02:53:04;5.40;4.10
429;DHT22;201;48.758;9.290;2023-02-02T02:55:39;5.50;4.00
429;DHT22;201;48.758;9.290;2023-02-02T02:58:12;5.40;3.50
429;DHT22;201;48.758;9.290;2023-02-02T03:00:47;5.50;3.80
429;DHT22;201;48.758;9.290;2023-02-02T03:08:51;5.40;3.70
429;DHT22;201;48.758;9.290;2023-02-02T03:11:18;5.40;3.90
429;DHT22;201;48.758;9.290;2023-02-02T03:13:44;5.40;3.90
429;DHT22;201;48.758;9.290;2023-02-02T03:16:10;5.50;3.80
429;DHT22;201;48.758;9.290;2023-02-02T03:18:36;5.40;3.70
429;DHT22;201;48.758;9.290;2023-02-02T03:21:02;5.50;3.90
429;DHT22;201;48.758;9.290;2023-02-02T03:23:28;5.40;3.90
429;DHT22;201;48.758;9.290;2023-02-02T03:25:54;5.50;3.90
429;DHT22;201;48.758;9.290;2023-02-02T03:28:20;5.50;3.70
429;DHT22;201;48.758;9.290;2023-02-02T03:30:47;5.60;3.50
429;DHT22;201;48.758;9.290;2023-02-02T03:33:13;5.50;3.80
429;DHT22;201;48.758;9.290;2023-02-02T03:35:40;5.50;3.40
429;DHT22;201;48.758;9.290;2023-02-02T03:38:05;5.60;3.50
429;DHT22;201;48.758;9.290;2023-02-02T03:40:31;5.50;3.60
429;DHT22;201;48.758;9.290;2023-02-02T03:42:56;5.60;3.40
429;DHT22;201;48.758;9.290;2023-02-02T03:45:22;5.60;3.60
429;DHT22;201;48.758;9.290;2023-02-02T03:47:48;5.50;3.30
429;DHT22;201;48.758;9.290;2023-02-02T03:50:13;5.60;3.20
429;DHT22;201;48.758;9.290;2023-02-02T03:52:39;5.60;3.60
429;DHT22;201;48.758;9.290;2023-02-02T03:55:05;5.60;3.30
429;DHT22;201;48.758;9.290;2023-02-02T03:57:31;5.60;3.40
429;DHT22;201;48.758;9.290;2023-02-02T03:59:56;5.60;3.60
429;DHT22;201;48.758;9.290;2023-02-02T04:02:22;5.60;4.00
429;DHT22;201;48.758;9.290;2023-02-02T04:04:47;5.60;3.60
429;DHT22;201;48.758;9.290;2023-02-02T04:07:13;5.60;3.90
429;DHT22;201;48.758;9.290;2023-02-02T04:09:38;5.60;3.90
429;DHT22;201;48.758;9.290;2023-02-02T04:12:04;5.60;3.90
429;DHT22;201;48.758;9.290;2023-02-02T04:14:30;5.60;4.00
429;DHT22;201;48.758;9.290;2023-02-02T04:16:55;5.60;4.00
429;DHT22;201;48.758;9.290;2023-02-02T04:19:21;5.60;4.10
429;DHT22;201;48.758;9.290;2023-02-02T04:21:46;5.60;4.10
429;DHT22;201;48.758;9.290;2023-02-02T04:24:13;5.60;4.10
429;DHT22;201;48.758;9.290;2023-02-02T04:26:39;5.60;4.00
429;DHT22;201;48.758;9.290;2023-02-02T04:29:05;5.60;4.00
429;DHT22;201;48.758;9.290;2023-02-02T04:31:31;5.60;4.00
429;DHT22;201;48.758;9.290;2023-02-02T04:33:57;5.60;4.30
429;DHT22;201;48.758;9.290;2023-02-02T04:36:24;5.60;4.40
429;DHT22;201;48.758;9.290;2023-02-02T04:38:50;5.60;4.20
429;DHT22;201;48.758;9.290;2023-02-02T04:41:16;5.70;3.90
429;DHT22;201;48.758;9.290;2023-02-02T04:43:46;5.60;4.00
429;DHT22;201;48.758;9.290;2023-02-02T04:46:12;5.60;4.20
429;DHT22;201;48.758;9.290;2023-02-02T04:48:39;5.60;4.10
429;DHT22;201;48.758;9.290;2023-02-02T04:51:11;5.60;4.00
429;DHT22;201;48.758;9.290;2023-02-02T04:53:37;5.60;4.00
429;DHT22;201;48.758;9.290;2023-02-02T04:56:09;5.60;4.00
429;DHT22;201;48.758;9.290;2023-02-02T04:58:36;5.60;4.10
429;DHT22;201;48.758;9.290;2023-02-02T05:01:07;5.60;3.90
429;DHT22;201;48.758;9.290;2023-02-02T05:03:33;5.70;3.90
429;DHT22;201;48.758;9.290;2023-02-02T05:06:03;5.60;3.90
429;DHT22;201;48.758;9.290;2023-02-02T05:08:29;5.60;4.10
429;DHT22;201;48.758;9.290;2023-02-02T05:10:54;5.60;3.90
429;DHT22;201;48.758;9.290;2023-02-02T05:13:20;5.60;4.10
429;DHT22;201;48.758;9.290;2023-02-02T05:15:45;5.70;4.00
429;DHT22;201;48.758;9.290;2023-02-02T05:18:11;5.70;4.00
429;DHT22;201;48.758;9.290;2023-02-02T05:20:36;5.70;4.10
429;DHT22;201;48.758;9.290;2023-02-02T05:23:02;5.70;4.00
429;DHT22;201;48.758;9.290;2023-02-02T05:25:27;5.70;4.30
429;DHT22;201;48.758;9.290;2023-02-02T05:27:53;5.70;4.00
429;DHT22;201;48.758;9.290;2023-02-02T05:30:18;5.70;4.10
429;DHT22;201;48.758;9.290;2023-02-02T05:32:44;5.70;4.00
429;DHT22;201;48.758;9.290;2023-02-02T05:35:10;5.70;4.40
429;DHT22;201;48.758;9.290;2023-02-02T05:37:35;5.70;4.30
429;DHT22;201;48.758;9.290;2023-02-02T05:40:02;5.70;4.20
429;DHT22;201;48.758;9.290;2023-02-02T05:42:28;5.70;4.30
429;DHT22;201;48.758;9.290;2023-02-02T05:44:53;5.70;4.50
429;DHT22;201;48.758;9.290;2023-02-02T05:47:19;5.70;4.70
429;DHT22;201;48.758;9.290;2023-02-02T05:49:46;5.70;4.70
429;DHT22;201;48.758;9.290;2023-02-02T05:52:16;5.70;4.90
429;DHT22;201;48.758;9.290;2023-02-02T05:54:43;5.70;4.90
429;DHT22;201;48.758;9.290;2023-02-02T05:57:08;5.70;4.70
429;DHT22;201;48.758;9.290;2023-02-02T05:59:34;5.70;4.80
429;DHT22;201;48.758;9.290;2023-02-02T06:01:59;5.70;5.00
429;DHT22;201;48.758;9.290;2023-02-02T06:04:25;5.70;5.10
429;DHT22;201;48.758;9.290;2023-02-02T06:06:50;5.70;5.00
429;DHT22;201;48.758;9.290;2023-02-02T06:09:16;5.70;4.60
429;DHT22;201;48.758;9.290;2023-02-02T06:11:42;5.70;4.80
429;DHT22;201;48.758;9.290;2023-02-02T06:14:08;5.70;5.10
429;DHT22;201;48.758;9.290;2023-02-02T06:16:34;5.70;4.70
429;DHT22;201;48.758;9.290;2023-02-02T06:18:59;5.70;4.60
429;DHT22;201;48.758;9.290;2023-02-02T06:21:25;5.70;4.60
429;DHT22;201;48.758;9.290;2023-02-02T06:23:51;5.80;4.60
429;DHT22;201;48.758;9.290;2023-02-02T06:26:17;5.70;4.60
429;DHT22;201;48.758;9.290;2023-02-02T06:28:47;5.70;4.90
429;DHT22;201;48.758;9.290;2023-02-02T06:31:13;5.70;4.80
429;DHT22;201;48.758;9.290;2023-02-02T06:33:46;5.70;4.70
429;DHT22;201;48.758;9.290;2023-02-02T06:36:12;5.70;4.60
429;DHT22;201;48.758;9.290;2023-02-02T06:38:37;5.70;5.00
429;DHT22;201;48.758;9.290;2023-02-02T06:41:03;5.80;4.80
429;DHT22;201;48.758;9.290;2023-02-02T06:43:29;5.70;4.90
429;DHT22;201;48.758;9.290;2023-02-02T06:45:58;5.70;4.90
429;DHT22;201;48.758;9.290;2023-02-02T06:48:25;5.70;4.70
429;DHT22;201;48.758;9.290;2023-02-02T06:50:50;5.70;4.90
429;DHT22;201;48.758;9.290;2023-02-02T06:53:16;5.70;5.00
429;DHT22;201;48.758;9.290;2023-02-02T06:55:57;5.70;4.90
429;DHT22;201;48.758;9.290;2023-02-02T06:58:23;5.80;5.00
429;DHT22;201;48.758;9.290;2023-02-02T07:00:49;5.80;4.70
429;DHT22;201;48.758;9.290;2023-02-02T07:03:15;5.80;4.60
429;DHT22;201;48.758;9.290;2023-02-02T07:05:41;5.80;4.60
429;DHT22;201;48.758;9.290;2023-02-02T07:08:06;5.90;4.70
429;DHT22;201;48.758;9.290;2023-02-02T07:10:32;5.80;4.40
429;DHT22;201;48.758;9.290;2023-02-02T07:12:57;5.90;4.20
429;DHT22;201;48.758;9.290;2023-02-02T07:15:23;5.90;4.40
429;DHT22;201;48.758;9.290;2023-02-02T07:17:48;5.90;4.40
429;DHT22;201;48.758;9.290;2023-02-02T07:20:14;5.90;4.20
429;DHT22;201;48.758;9.290;2023-02-02T07:22:40;5.90;4.30
429;DHT22;201;48.758;9.290;2023-02-02T07:25:07;6.00;4.50
429;DHT22;201;48.758;9.290;2023-02-02T07:27:33;6.00;4.20
429;DHT22;201;48.758;9.290;2023-02-02T07:29:59;6.00;4.00
429;DHT22;201;48.758;9.290;2023-02-02T07:32:24;6.00;4.20
429;DHT22;201;48.758;9.290;2023-02-02T07:34:50;5.90;4.50
429;DHT22;201;48.758;9.290;2023-02-02T07:37:16;6.00;4.20
429;DHT22;201;48.758;9.290;2023-02-02T07:39:41;5.90;3.70
429;DHT22;201;48.758;9.290;2023-02-02T07:42:10;5.90;3.90
429;DHT22;201;48.758;9.290;2023-02-02T07:44:36;5.90;4.00
429;DHT22;201;48.758;9.290;2023-02-02T07:47:01;5.90;4.10
429;DHT22;201;48.758;9.290;2023-02-02T07:49:27;5.80;4.10
429;DHT22;201;48.758;9.290;2023-02-02T07:51:52;5.90;4.20
429;DHT22;201;48.758;9.290;2023-02-02T07:54:19;5.80;4.30
429;DHT22;201;48.758;9.290;2023-02-02T07:56:44;5.80;4.40
429;DHT22;201;48.758;9.290;2023-02-02T07:59:10;5.80;4.80
429;DHT22;201;48.758;9.290;2023-02-02T08:01:36;5.70;4.90
429;DHT22;201;48.758;9.290;2023-02-02T08:04:01;5.70;5.00
429;DHT22;201;48.758;9.290;2023-02-02T08:06:30;5.70;5.40
429;DHT22;201;48.758;9.290;2023-02-02T08:08:57;5.70;5.50
429;DHT22;201;48.758;9.290;2023-02-02T08:11:24;5.70;5.50
429;DHT22;201;48.758;9.290;2023-02-02T08:13:51;5.70;6.20
429;DHT22;201;48.758;9.290;2023-02-02T08:16:17;5.60;7.30
429;DHT22;201;48.758;9.290;2023-02-02T08:18:43;5.50;7.20
429;DHT22;201;48.758;9.290;2023-02-02T08:21:09;5.30;7.40
429;DHT22;201;48.758;9.290;2023-02-02T08:23:36;5.20;8.20
429;DHT22;201;48.758;9.290;2023-02-02T08:26:11;5.10;8.70
429;DHT22;201;48.758;9.290;2023-02-02T08:28:38;5.10;9.10
429;DHT22;201;48.758;9.290;2023-02-02T08:33:38;5.10;9.20
429;DHT22;201;48.758;9.290;2023-02-02T08:36:04;5.10;9.10
429;DHT22;201;48.758;9.290;2023-02-02T08:38:29;5.10;9.00
429;DHT22;201;48.758;9.290;2023-02-02T08:40:55;5.10;8.80
429;DHT22;201;48.758;9.290;2023-02-02T08:43:21;5.10;8.70
429;DHT22;201;48.758;9.290;2023-02-02T08:45:49;5.20;8.90
429;DHT22;201;48.758;9.290;2023-02-02T08:48:14;5.20;8.60
429;DHT22;201;48.758;9.290;2023-02-02T08:50:41;5.20;8.50
429;DHT22;201;48.758;9.290;2023-02-02T08:53:07;5.20;8.40
429;DHT22;201;48.758;9.290;2023-02-02T08:55:32;5.20;8.30
429;DHT22;201;48.758;9.290;2023-02-02T08:57:58;5.20;8.10
429;DHT22;201;48.758;9.290;2023-02-02T09:00:23;5.20;8.00
429;DHT22;201;48.758;9.290;2023-02-02T09:02:49;5.30;7.80
429;DHT22;201;48.758;9.290;2023-02-02T09:05:15;5.30;7.80
429;DHT22;201;48.758;9.290;2023-02-02T09:07:41;5.30;7.90
429;DHT22;201;48.758;9.290;2023-02-02T09:10:07;5.30;7.70
429;DHT22;201;48.758;9.290;2023-02-02T09:12:32;5.30;7.90
429;DHT22;201;48.758;9.290;2023-02-02T09:14:58;5.30;7.90
429;DHT22;201;48.758;9.290;2023-02-02T09:17:23;5.40;7.90
429;DHT22;201;48.758;9.290;2023-02-02T09:19:49;5.40;7.30
429;DHT22;201;48.758;9.290;2023-02-02T09:22:15;5.50;7.20
429;DHT22;201;48.758;9.290;2023-02-02T09:24:40;5.50;7.20
429;DHT22;201;48.758;9.290;2023-02-02T09:27:06;5.50;7.20
429;DHT22;201;48.758;9.290;2023-02-02T09:29:31;5.60;7.30
429;DHT22;201;48.758;9.290;2023-02-02T09:31:57;5.70;7.30
429;DHT22;201;48.758;9.290;2023-02-02T09:34:22;5.80;7.40
429;DHT22;201;48.758;9.290;2023-02-02T09:36:48;5.90;6.70
429;DHT22;201;48.758;9.290;2023-02-02T09:39:13;6.00;4.80
429;DHT22;201;48.758;9.290;2023-02-02T09:49:58;6.40;3.60
429;DHT22;201;48.758;9.290;2023-02-02T09:55:38;6.40;3.10
429;DHT22;201;48.758;9.290;2023-02-02T10:00:36;6.50;3.50
429;DHT22;201;48.758;9.290;2023-02-02T10:03:20;6.40;3.80
429;DHT22;201;48.758;9.290;2023-02-02T10:05:56;6.40;4.20
429;DHT22;201;48.758;9.290;2023-02-02T10:08:34;6.50;4.20
429;DHT22;201;48.758;9.290;2023-02-02T10:13:44;6.40;3.90
429;DHT22;201;48.758;9.290;2023-02-02T10:16:18;6.40;3.70
429;DHT22;201;48.758;9.290;2023-02-02T10:19:02;6.40;4.30
429;DHT22;201;48.758;9.290;2023-02-02T10:22:10;6.50;4.70
429;DHT22;201;48.758;9.290;2023-02-02T10:24:30;6.40;4.30
429;DHT22;201;48.758;9.290;2023-02-02T10:27:03;6.50;4.80
429;DHT22;201;48.758;9.290;2023-02-02T10:32:22;6.50;4.40
429;DHT22;201;48.758;9.290;2023-02-02T10:37:47;6.40;3.80
429;DHT22;201;48.758;9.290;2023-02-02T10:43:19;6.40;3.40
429;DHT22;201;48.758;9.290;2023-02-02T10:46:21;6.50;3.50
429;DHT22;201;48.758;9.290;2023-02-02T10:48:48;6.50;3.50
429;DHT22;201;48.758;9.290;2023-02-02T10:51:22;6.50;3.10
429;DHT22;201;48.758;9.290;2023-02-02T10:53:53;6.50;3.40
429;DHT22;201;48.758;9.290;2023-02-02T10:56:34;6.60;3.40
429;DHT22;201;48.758;9.290;2023-02-02T10:59:13;6.60;3.10
429;DHT22;201;48.758;9.290;2023-02-02T11:01:40;6.60;3.60
429;DHT22;201;48.758;9.290;2023-02-02T11:04:08;6.50;4.50
429;DHT22;201;48.758;9.290;2023-02-02T11:06:52;6.50;4.90
429;DHT22;201;48.758;9.290;2023-02-02T11:09:23;6.50;5.70
429;DHT22;201;48.758;9.290;2023-02-02T11:11:54;6.40;5.20
429;DHT22;201;48.758;9.290;2023-02-02T11:14:46;6.40;5.90
429;DHT22;201;48.758;9.290;2023-02-02T11:17:24;6.40;6.40
429;DHT22;201;48.758;9.290;2023-02-02T11:19:51;6.50;6.30
429;DHT22;201;48.758;9.290;2023-02-02T11:22:34;6.50;5.50
429;DHT22;201;48.758;9.290;2023-02-02T11:25:24;6.50;6.40
429;DHT22;201;48.758;9.290;2023-02-02T11:27:51;6.50;5.90
429;DHT22;201;48.758;9.290;2023-02-02T11:30:27;6.50;6.20
429;DHT22;201;48.758;9.290;2023-02-02T11:32:54;6.50;5.70
429;DHT22;201;48.758;9.290;2023-02-02T11:35:22;6.60;5.70
429;DHT22;201;48.758;9.290;2023-02-02T11:38:14;6.60;5.80
429;DHT22;201;48.758;9.290;2023-02-02T11:41:02;6.60;6.00
429;DHT22;201;48.758;9.290;2023-02-02T11:43:48;6.60;6.30
429;DHT22;201;48.758;9.290;2023-02-02T11:46:21;6.70;5.30
429;DHT22;201;48.758;9.290;2023-02-02T11:49:03;6.70;5.50
429;DHT22;201;48.758;9.290;2023-02-02T11:51:32;6.70;4.90
429;DHT22;201;48.758;9.290;2023-02-02T11:54:25;6.70;4.60
429;DHT22;201;48.758;9.290;2023-02-02T11:56:55;6.70;5.10
429;DHT22;201;48.758;9.290;2023-02-02T11:59:41;6.60;4.40
429;DHT22;201;48.758;9.290;2023-02-02T12:04:47;6.60;5.20
429;DHT22;201;48.758;9.290;2023-02-02T12:09:43;6.60;5.40
429;DHT22;201;48.758;9.290;2023-02-02T12:17:33;6.60;6.00
429;DHT22;201;48.758;9.290;2023-02-02T12:20:42;6.50;6.10
429;DHT22;201;48.758;9.290;2023-02-02T12:31:25;6.40;6.70
429;DHT22;201;48.758;9.290;2023-02-02T12:34:05;6.30;5.50
429;DHT22;201;48.758;9.290;2023-02-02T12:36:52;6.30;6.60
429;DHT22;201;48.758;9.290;2023-02-02T12:39:42;6.20;6.30
429;DHT22;201;48.758;9.290;2023-02-02T12:47:53;6.10;7.60
429;DHT22;201;48.758;9.290;2023-02-02T12:51:09;6.00;7.20
429;DHT22;201;48.758;9.290;2023-02-02T12:59:50;5.90;7.50
429;DHT22;201;48.758;9.290;2023-02-02T13:05:37;5.80;8.10
429;DHT22;201;48.758;9.290;2023-02-02T13:08:30;5.80;8.60
429;DHT22;201;48.758;9.290;2023-02-02T13:11:07;5.90;9.40
429;DHT22;201;48.758;9.290;2023-02-02T13:13:56;5.80;9.20
429;DHT22;201;48.758;9.290;2023-02-02T13:16:22;5.80;8.80
429;DHT22;201;48.758;9.290;2023-02-02T13:18:59;5.80;8.80
429;DHT22;201;48.758;9.290;2023-02-02T13:21:26;5.80;8.80
429;DHT22;201;48.758;9.290;2023-02-02T13:23:59;5.80;8.80
429;DHT22;201;48.758;9.290;2023-02-02T13:26:31;5.80;8.80
429;DHT22;201;48.758;9.290;2023-02-02T13:31:53;5.80;9.10
429;DHT22;201;48.758;9.290;2023-02-02T13:37:29;5.80;9.30
429;DHT22;201;48.758;9.290;2023-02-02T13:40:04;5.90;9.30
429;DHT22;201;48.758;9.290;2023-02-02T13:45:59;6.00;9.00
429;DHT22;201;48.758;9.290;2023-02-02T14:01:58;6.20;7.70
429;DHT22;201;48.758;9.290;2023-02-02T14:04:27;6.30;7.80
429;DHT22;201;48.758;9.290;2023-02-02T14:07:00;6.30;7.80
429;DHT22;201;48.758;9.290;2023-02-02T14:09:31;6.30;7.80
429;DHT22;201;48.758;9.290;2023-02-02T14:12:08;6.30;7.80
429;DHT22;201;48.758;9.290;2023-02-02T14:14:37;6.30;7.40
429;DHT22;201;48.758;9.290;2023-02-02T14:29:35;6.40;5.70
429;DHT22;201;48.758;9.290;2023-02-02T14:32:40;6.50;6.20
429;DHT22;201;48.758;9.290;2023-02-02T14:37:40;6.50;5.10
429;DHT22;201;48.758;9.290;2023-02-02T14:40:43;6.50;5.20
429;DHT22;201;48.758;9.290;2023-02-02T14:43:26;6.50;5.10
429;DHT22;201;48.758;9.290;2023-02-02T14:51:30;6.50;4.70
429;DHT22;201;48.758;9.290;2023-02-02T14:54:05;6.50;4.90
429;DHT22;201;48.758;9.290;2023-02-02T14:56:49;6.50;4.50
429;DHT22;201;48.758;9.290;2023-02-02T14:59:28;6.50;4.10
429;DHT22;201;48.758;9.290;2023-02-02T15:02:13;6.50;4.20
429;DHT22;201;48.758;9.290;2023-02-02T15:04:40;6.50;4.70
429;DHT22;201;48.758;9.290;2023-02-02T15:09:53;6.60;4.10
429;DHT22;201;48.758;9.290;2023-02-02T15:12:41;6.60;3.60
429;DHT22;201;48.758;9.290;2023-02-02T15:15:22;6.60;4.00
429;DHT22;201;48.758;9.290;2023-02-02T15:18:03;6.60;3.60
429;DHT22;201;48.758;9.290;2023-02-02T15:20:40;6.50;3.50
429;DHT22;201;48.758;9.290;2023-02-02T15:23:28;6.60;3.40
429;DHT22;201;48.758;9.290;2023-02-02T15:26:24;6.60;3.10
429;DHT22;201;48.758;9.290;2023-02-02T15:29:00;6.60;2.80
429;DHT22;201;48.758;9.290;2023-02-02T15:31:40;6.60;2.60
429;DHT22;201;48.758;9.290;2023-02-02T15:34:15;6.60;2.50
429;DHT22;201;48.758;9.290;2023-02-02T15:36:43;6.70;2.80
429;DHT22;201;48.758;9.290;2023-02-02T15:41:43;6.70;2.70
429;DHT22;201;48.758;9.290;2023-02-02T15:44:27;6.60;2.40
429;DHT22;201;48.758;9.290;2023-02-02T15:46:54;6.60;2.50
429;DHT22;201;48.758;9.290;2023-02-02T15:49:27;6.60;2.50
429;DHT22;201;48.758;9.290;2023-02-02T15:51:57;6.60;2.80
429;DHT22;201;48.758;9.290;2023-02-02T15:54:33;6.60;2.80
429;DHT22;201;48.758;9.290;2023-02-02T15:57:00;6.60;2.70
429;DHT22;201;48.758;9.290;2023-02-02T15:59:38;6.60;3.00
429;DHT22;201;48.758;9.290;2023-02-02T16:04:36;6.60;2.70
429;DHT22;201;48.758;9.290;2023-02-02T16:07:11;6.50;2.70
429;DHT22;201;48.758;9.290;2023-02-02T16:09:39;6.50;3.60
429;DHT22;201;48.758;9.290;2023-02-02T16:12:19;6.50;2.90
429;DHT22;201;48.758;9.290;2023-02-02T16:14:52;6.50;2.90
429;DHT22;201;48.758;9.290;2023-02-02T16:17:31;6.50;3.00
429;DHT22;201;48.758;9.290;2023-02-02T16:20:01;6.50;3.30
429;DHT22;201;48.758;9.290;2023-02-02T16:22:27;6.50;3.00
429;DHT22;201;48.758;9.290;2023-02-02T16:24:57;6.50;2.90
429;DHT22;201;48.758;9.290;2023-02-02T16:27:25;6.50;2.60
429;DHT22;201;48.758;9.290;2023-02-02T16:29:52;6.50;3.10
429;DHT22;201;48.758;9.290;2023-02-02T16:34:50;6.50;3.10
429;DHT22;201;48.758;9.290;2023-02-02T16:37:28;6.50;2.90
429;DHT22;201;48.758;9.290;2023-02-02T16:40:34;6.50;3.00
429;DHT22;201;48.758;9.290;2023-02-02T16:45:58;6.50;3.20
429;DHT22;201;48.758;9.290;2023-02-02T16:48:32;6.40;3.40
429;DHT22;201;48.758;9.290;2023-02-02T16:53:46;6.50;3.30
429;DHT22;201;48.758;9.290;2023-02-02T16:56:40;6.50;3.40
429;DHT22;201;48.758;9.290;2023-02-02T16:59:21;6.50;3.40
429;DHT22;201;48.758;9.290;2023-02-02T17:01:52;6.50;3.40
429;DHT22;201;48.758;9.290;2023-02-02T17:04:22;6.50;3.50
429;DHT22;201;48.758;9.290;2023-02-02T17:06:49;6.50;3.50
429;DHT22;201;48.758;9.290;2023-02-02T17:09:38;6.50;3.50
429;DHT22;201;48.758;9.290;2023-02-02T17:14:49;6.50;3.50
429;DHT22;201;48.758;9.290;2023-02-02T17:17:16;6.40;3.20
429;DHT22;201;48.758;9.290;2023-02-02T17:19:42;6.50;3.70
429;DHT22;201;48.758;9.290;2023-02-02T17:22:07;6.40;3.90
429;DHT22;201;48.758;9.290;2023-02-02T17:24:33;6.40;3.80
429;DHT22;201;48.758;9.290;2023-02-02T17:26:59;6.40;3.60
429;DHT22;201;48.758;9.290;2023-02-02T17:29:25;6.50;3.80
429;DHT22;201;48.758;9.290;2023-02-02T17:31:51;6.40;3.50
429;DHT22;201;48.758;9.290;2023-02-02T17:34:18;6.50;3.90
429;DHT22;201;48.758;9.290;2023-02-02T17:36:43;6.50;4.20
429;DHT22;201;48.758;9.290;2023-02-02T17:39:09;6.50;4.20
429;DHT22;201;48.758;9.290;2023-02-02T17:41:35;6.40;4.20
429;DHT22;201;48.758;9.290;2023-02-02T17:44:01;6.40;4.30
429;DHT22;201;48.758;9.290;2023-02-02T17:46:30;6.40;4.20
429;DHT22;201;48.758;9.290;2023-02-02T17:48:56;6.40;4.40
429;DHT22;201;48.758;9.290;2023-02-02T17:51:22;6.40;4.40
429;DHT22;201;48.758;9.290;2023-02-02T17:53:48;6.40;4.10
429;DHT22;201;48.758;9.290;2023-02-02T17:56:13;6.40;4.20
429;DHT22;201;48.758;9.290;2023-02-02T17:58:39;6.30;4.50
429;DHT22;201;48.758;9.290;2023-02-02T18:01:05;6.40;4.50
429;DHT22;201;48.758;9.290;2023-02-02T18:03:33;6.30;4.10
429;DHT22;201;48.758;9.290;2023-02-02T18:06:00;6.30;4.60
429;DHT22;201;48.758;9.290;2023-02-02T18:08:27;6.30;4.70
429;DHT22;201;48.758;9.290;2023-02-02T18:10:52;6.30;4.70
429;DHT22;201;48.758;9.290;2023-02-02T18:13:19;6.30;4.70
429;DHT22;201;48.758;9.290;2023-02-02T18:15:46;6.30;4.40
429;DHT22;201;48.758;9.290;2023-02-02T18:18:11;6.30;4.30
429;DHT22;201;48.758;9.290;2023-02-02T18:20:45;6.20;4.10
429;DHT22;201;48.758;9.290;2023-02-02T18:23:11;6.20;4.30
429;DHT22;201;48.758;9.290;2023-02-02T18:25:37;6.20;4.40
429;DHT22;201;48.758;9.290;2023-02-02T18:28:04;6.20;4.10
429;DHT22;201;48.758;9.290;2023-02-02T18:30:30;6.20;4.10
429;DHT22;201;48.758;9.290;2023-02-02T18:32:56;6.20;3.80
429;DHT22;201;48.758;9.290;2023-02-02T18:35:22;6.30;4.10
429;DHT22;201;48.758;9.290;2023-02-02T18:37:49;6.20;3.80
429;DHT22;201;48.758;9.290;2023-02-02T18:40:15;6.20;3.50
429;DHT22;201;48.758;9.290;2023-02-02T18:42:41;6.20;3.80
429;DHT22;201;48.758;9.290;2023-02-02T18:45:06;6.20;3.40
429;DHT22;201;48.758;9.290;2023-02-02T18:47:32;6.20;3.80
429;DHT22;201;48.758;9.290;2023-02-02T18:49:57;6.20;3.90
429;DHT22;201;48.758;9.290;2023-02-02T18:52:23;6.20;3.70
429;DHT22;201;48.758;9.290;2023-02-02T18:54:49;6.20;4.00
429;DHT22;201;48.758;9.290;2023-02-02T18:57:15;6.20;3.80
429;DHT22;201;48.758;9.290;2023-02-02T18:59:41;6.20;3.70
429;DHT22;201;48.758;9.290;2023-02-02T19:02:14;6.20;4.00
429;DHT22;201;48.758;9.290;2023-02-02T19:04:41;6.20;4.20
429;DHT22;201;48.758;9.290;2023-02-02T19:07:25;6.20;4.00
429;DHT22;201;48.758;9.290;2023-02-02T19:10:10;6.20;4.10
429;DHT22;201;48.758;9.290;2023-02-02T19:12:36;6.20;4.20
429;DHT22;201;48.758;9.290;2023-02-02T19:15:09;6.20;4.10
429;DHT22;201;48.758;9.290;2023-02-02T19:17:35;6.20;4.30
429;DHT22;201;48.758;9.290;2023-02-02T19:20:17;6.20;4.20
429;DHT22;201;48.758;9.290;2023-02-02T19:22:45;6.10;4.50
429;DHT22;201;48.758;9.290;2023-02-02T19:25:11;6.10;4.70
429;DHT22;201;48.758;9.290;2023-02-02T19:27:37;6.10;4.60
429;DHT22;201;48.758;9.290;2023-02-02T19:30:11;6.10;4.50
429;DHT22;201;48.758;9.290;2023-02-02T19:32:40;6.20;4.60
429;DHT22;201;48.758;9.290;2023-02-02T19:35:10;6.10;4.70
429;DHT22;201;48.758;9.290;2023-02-02T19:37:39;6.10;4.30
429;DHT22;201;48.758;9.290;2023-02-02T19:42:34;6.10;4.70
429;DHT22;201;48.758;9.290;2023-02-02T19:45:08;6.10;4.40
429;DHT22;201;48.758;9.290;2023-02-02T19:47:41;6.10;4.60
429;DHT22;201;48.758;9.290;2023-02-02T19:50:19;6.10;4.10
429;DHT22;201;48.758;9.290;2023-02-02T19:52:47;6.10;4.00
429;DHT22;201;48.758;9.290;2023-02-02T19:57:47;6.10;4.30